Time;durP1;ratioP1;P1;durP2;ratioP2;P2;SDS_P1;SDS_P2;PMS_P1;PMS_P2;Temp;Humidity;BMP_temperature;BMP_pressure;BME280_temperature;BME280_humidity;BME280_pressure;Samples;Min_cycle;Max_cycle;Signal;HPM_P1;HPM_P2
2022/05/03 00:00:06;;;;;;;6.97;4.07;;;;;;;;;;4934123;29;20058;-69
2022/05/03 00:02:46;;;;;;;8.65;4.25;;;;;;;;;;4933372;28;20063;-67
2022/05/03 00:05:27;;;;;;;6.60;4.47;;;;;;;;;;4931995;29;20032;-68
2022/05/03 00:08:04;;;;;;;5.50;4.15;;;;;;;;;;4934250;29;20090;-68
2022/05/03 00:11:00;;;;;;;4.97;4.20;;;;;;;;;;4934412;29;20047;-72
2022/05/03 00:13:36;;;;;;;12.23;4.05;;;;;;;;;;4937670;29;20040;-70
2022/05/03 00:16:02;;;;;;;6.78;4.47;;;;;;;;;;4937199;29;20099;-70
2022/05/03 00:18:28;;;;;;;7.38;4.53;;;;;;;;;;4937316;29;20387;-71
2022/05/03 00:20:55;;;;;;;7.72;3.95;;;;;;;;;;4937525;29;20040;-71
2022/05/03 00:23:22;;;;;;;5.15;4.20;;;;;;;;;;4937385;29;20051;-68
2022/05/03 00:25:51;;;;;;;5.95;4.32;;;;;;;;;;4937647;29;20062;-68
2022/05/03 00:28:19;;;;;;;6.38;4.53;;;;;;;;;;4937597;29;20111;-69
2022/05/03 00:30:46;;;;;;;5.70;4.60;;;;;;;;;;4937605;29;20035;-73
2022/05/03 00:33:15;;;;;;;6.88;4.50;;;;;;;;;;4937612;29;20028;-68
2022/05/03 00:35:41;;;;;;;7.78;4.43;;;;;;;;;;4936855;29;20235;-70
2022/05/03 00:38:07;;;;;;;5.88;4.93;;;;;;;;;;4937262;29;20042;-70
2022/05/03 00:40:34;;;;;;;7.13;4.10;;;;;;;;;;4937168;29;20036;-71
2022/05/03 00:43:14;;;;;;;7.05;4.93;;;;;;;;;;4936925;29;20423;-68
2022/05/03 00:45:48;;;;;;;8.68;4.90;;;;;;;;;;4937105;29;20070;-72
2022/05/03 00:48:43;;;;;;;8.25;4.47;;;;;;;;;;4937396;29;20455;-72
2022/05/03 00:51:16;;;;;;;6.80;4.50;;;;;;;;;;4938407;29;20106;-69
2022/05/03 00:54:17;;;;;;;5.63;4.22;;;;;;;;;;4937222;29;20036;-71
2022/05/03 00:57:21;;;;;;;6.28;4.45;;;;;;;;;;4938101;29;20042;-72
2022/05/03 01:00:09;;;;;;;6.32;5.00;;;;;;;;;;4941494;29;20134;-69
2022/05/03 01:02:51;;;;;;;8.35;4.40;;;;;;;;;;4936967;29;20195;-67
2022/05/03 01:05:25;;;;;;;6.60;5.10;;;;;;;;;;4937006;29;20075;-68
2022/05/03 01:08:07;;;;;;;6.30;4.90;;;;;;;;;;4937214;29;20036;-72
2022/05/03 01:10:41;;;;;;;5.38;4.80;;;;;;;;;;4936721;29;20075;-72
2022/05/03 01:13:41;;;;;;;6.20;5.10;;;;;;;;;;4936646;29;20110;-67
2022/05/03 01:16:25;;;;;;;6.93;5.05;;;;;;;;;;4936583;29;20046;-66
2022/05/03 01:19:02;;;;;;;6.90;4.88;;;;;;;;;;4936855;29;20032;-68
2022/05/03 01:21:57;;;;;;;7.35;5.13;;;;;;;;;;4936291;29;20047;-68
2022/05/03 01:24:54;;;;;;;8.65;5.03;;;;;;;;;;4935749;29;20115;-69
2022/05/03 01:27:59;;;;;;;6.82;5.22;;;;;;;;;;4936174;29;20040;-70
2022/05/03 01:30:31;;;;;;;10.32;5.45;;;;;;;;;;4936476;28;20058;-68
2022/05/03 01:33:06;;;;;;;6.18;4.80;;;;;;;;;;4935713;29;20040;-71
2022/05/03 01:35:39;;;;;;;10.65;5.82;;;;;;;;;;4932525;29;20135;-68
2022/05/03 01:38:50;;;;;;;8.75;5.40;;;;;;;;;;4933529;29;20505;-68
2022/05/03 01:41:19;;;;;;;7.00;5.30;;;;;;;;;;4939805;29;20054;-69
2022/05/03 01:44:15;;;;;;;7.88;5.78;;;;;;;;;;4926278;29;20024;-67
2022/05/03 01:46:41;;;;;;;7.88;5.78;;;;;;;;;;4916957;29;20489;-72
2022/05/03 01:52:32;;;;;;;8.52;5.85;;;;;;;;;;4917088;29;20113;-69
2022/05/03 01:55:32;;;;;;;10.70;6.07;;;;;;;;;;4917016;29;20032;-71
2022/05/03 01:58:23;;;;;;;8.93;5.47;;;;;;;;;;4916605;29;20114;-70
2022/05/03 02:01:11;;;;;;;6.20;5.13;;;;;;;;;;4916599;29;20048;-67
2022/05/03 02:03:53;;;;;;;11.80;5.10;;;;;;;;;;4916518;29;20483;-68
2022/05/03 02:06:58;;;;;;;7.70;5.13;;;;;;;;;;4916598;29;20044;-67
2022/05/03 02:09:52;;;;;;;11.55;5.57;;;;;;;;;;4917018;29;20043;-69
2022/05/03 02:12:19;;;;;;;9.02;5.32;;;;;;;;;;4919720;29;20031;-68
2022/05/03 02:14:53;;;;;;;6.45;4.72;;;;;;;;;;4935444;29;20595;-70
2022/05/03 02:17:37;;;;;;;9.00;5.72;;;;;;;;;;4935486;29;20118;-66
2022/05/03 02:20:29;;;;;;;9.02;5.07;;;;;;;;;;4935587;29;20035;-71
2022/05/03 02:23:10;;;;;;;7.97;4.95;;;;;;;;;;4935267;29;20398;-68
2022/05/03 02:25:55;;;;;;;7.97;4.72;;;;;;;;;;4933613;29;20562;-70
2022/05/03 02:28:38;;;;;;;7.40;5.05;;;;;;;;;;4935081;29;20070;-70
2022/05/03 02:31:08;;;;;;;10.93;4.80;;;;;;;;;;4935431;29;20059;-67
2022/05/03 02:33:42;;;;;;;7.40;5.10;;;;;;;;;;4935018;29;20040;-71
2022/05/03 02:36:14;;;;;;;7.35;4.78;;;;;;;;;;4935206;29;20135;-71
2022/05/03 02:38:50;;;;;;;7.67;4.93;;;;;;;;;;4935073;29;20082;-71
2022/05/03 02:41:19;;;;;;;8.38;5.53;;;;;;;;;;4935303;29;20491;-67
2022/05/03 02:43:46;;;;;;;10.38;5.93;;;;;;;;;;4934816;29;20028;-72
2022/05/03 02:46:46;;;;;;;9.63;5.20;;;;;;;;;;4934992;29;20055;-73
2022/05/03 02:49:49;;;;;;;8.55;5.13;;;;;;;;;;4934837;29;20046;-69
2022/05/03 02:52:27;;;;;;;6.45;5.32;;;;;;;;;;4934796;29;20059;-71
2022/05/03 02:55:19;;;;;;;8.68;5.53;;;;;;;;;;4934220;29;20046;-73
2022/05/03 02:58:08;;;;;;;7.53;5.80;;;;;;;;;;4939183;29;20067;-70
2022/05/03 03:03:59;;;;;;;8.60;6.50;;;;;;;;;;4934822;29;20087;-71
2022/05/03 03:06:31;;;;;;;12.25;6.53;;;;;;;;;;4934860;29;20083;-69
2022/05/03 03:09:00;;;;;;;7.50;5.80;;;;;;;;;;4934326;28;20114;-70
2022/05/03 03:11:52;;;;;;;11.32;6.30;;;;;;;;;;4934646;29;20280;-71
2022/05/03 03:14:33;;;;;;;8.65;5.50;;;;;;;;;;4933996;29;20048;-66
2022/05/03 03:17:07;;;;;;;9.73;5.40;;;;;;;;;;4933596;29;20040;-67
2022/05/03 03:20:00;;;;;;;7.57;5.28;;;;;;;;;;4934689;29;20091;-69
2022/05/03 03:22:34;;;;;;;7.78;5.82;;;;;;;;;;4934861;29;20043;-68
2022/05/03 03:25:02;;;;;;;10.27;6.03;;;;;;;;;;4934843;29;20047;-70
2022/05/03 03:27:31;;;;;;;17.08;7.22;;;;;;;;;;4934254;29;20024;-70
2022/05/03 03:29:58;;;;;;;8.43;6.22;;;;;;;;;;4934326;29;20115;-68
2022/05/03 03:32:25;;;;;;;12.23;5.93;;;;;;;;;;4934290;29;20038;-68
2022/05/03 03:34:57;;;;;;;8.73;5.60;;;;;;;;;;4934134;29;20463;-71
2022/05/03 03:37:25;;;;;;;10.77;6.90;;;;;;;;;;4934018;29;20367;-72
2022/05/03 03:39:51;;;;;;;12.95;6.60;;;;;;;;;;4935267;29;20031;-73
2022/05/03 03:42:17;;;;;;;12.15;6.88;;;;;;;;;;4932023;28;20371;-73
2022/05/03 03:44:43;;;;;;;11.07;5.93;;;;;;;;;;4933905;29;20110;-73
2022/05/03 03:47:09;;;;;;;12.60;5.95;;;;;;;;;;4936494;29;20091;-73
2022/05/03 03:49:36;;;;;;;10.25;5.80;;;;;;;;;;4935047;29;20028;-71
2022/05/03 03:52:07;;;;;;;15.48;5.72;;;;;;;;;;4918705;29;20040;-72
2022/05/03 03:54:35;;;;;;;11.93;6.05;;;;;;;;;;4918635;29;20379;-69
2022/05/03 03:57:03;;;;;;;10.75;6.30;;;;;;;;;;4918635;29;20040;-73
2022/05/03 03:59:31;;;;;;;9.05;5.57;;;;;;;;;;4933383;29;20044;-71
2022/05/03 04:01:58;;;;;;;7.78;5.45;;;;;;;;;;4935595;29;20047;-70
2022/05/03 04:04:28;;;;;;;12.50;8.20;;;;;;;;;;4930003;29;20043;-71
2022/05/03 04:06:54;;;;;;;15.75;7.68;;;;;;;;;;4937603;29;20398;-71
2022/05/03 04:09:20;;;;;;;14.75;6.43;;;;;;;;;;4937506;29;20111;-67
2022/05/03 04:11:47;;;;;;;10.90;6.28;;;;;;;;;;4947168;29;20039;-67
2022/05/03 04:14:14;;;;;;;10.45;5.90;;;;;;;;;;4931712;29;20035;-69
2022/05/03 04:16:41;;;;;;;9.98;5.97;;;;;;;;;;4935786;29;20039;-72
2022/05/03 04:19:08;;;;;;;13.25;7.53;;;;;;;;;;4936937;29;20055;-70
2022/05/03 04:21:34;;;;;;;14.48;7.07;;;;;;;;;;4937102;29;20127;-72
2022/05/03 04:24:00;;;;;;;11.10;7.13;;;;;;;;;;4935739;29;20064;-72
2022/05/03 04:26:26;;;;;;;9.13;5.20;;;;;;;;;;4922636;29;20048;-73
2022/05/03 04:28:57;;;;;;;13.98;7.57;;;;;;;;;;4917756;29;20071;-73
2022/05/03 04:31:28;;;;;;;19.05;6.82;;;;;;;;;;4917750;29;20570;-72
2022/05/03 04:33:54;;;;;;;14.18;5.38;;;;;;;;;;4927701;29;20051;-71
2022/05/03 04:36:21;;;;;;;11.73;5.38;;;;;;;;;;4934139;29;20387;-74
2022/05/03 04:38:48;;;;;;;9.30;5.50;;;;;;;;;;4933742;29;20545;-72
2022/05/03 04:41:14;;;;;;;15.55;5.88;;;;;;;;;;4924245;29;20423;-74
2022/05/03 04:43:39;;;;;;;13.85;5.43;;;;;;;;;;4915333;29;20114;-73
2022/05/03 04:46:05;;;;;;;11.02;5.13;;;;;;;;;;4916337;29;20562;-75
2022/05/03 04:48:31;;;;;;;9.18;4.10;;;;;;;;;;4917816;29;20063;-77
2022/05/03 04:50:57;;;;;;;8.68;4.53;;;;;;;;;;4916149;29;20119;-74
2022/05/03 04:53:23;;;;;;;7.15;4.20;;;;;;;;;;4925491;29;20056;-73
2022/05/03 04:55:49;;;;;;;6.50;4.15;;;;;;;;;;4936990;29;20036;-73
2022/05/03 04:58:15;;;;;;;9.05;4.00;;;;;;;;;;4936092;29;20056;-72
2022/05/03 05:00:42;;;;;;;9.50;4.80;;;;;;;;;;4935730;29;20048;-73
2022/05/03 05:03:08;;;;;;;15.63;5.25;;;;;;;;;;4936004;29;20036;-71
2022/05/03 05:05:34;;;;;;;6.28;4.47;;;;;;;;;;4934230;29;20452;-73
2022/05/03 05:08:04;;;;;;;13.98;4.55;;;;;;;;;;4935951;29;20035;-72
2022/05/03 05:10:32;;;;;;;12.35;4.82;;;;;;;;;;4934494;29;20138;-75
2022/05/03 05:13:00;;;;;;;18.67;5.88;;;;;;;;;;4934476;29;20126;-73
2022/05/03 05:15:27;;;;;;;13.93;5.57;;;;;;;;;;4934179;29;20531;-73
2022/05/03 05:17:54;;;;;;;28.25;6.47;;;;;;;;;;4934782;29;20050;-75
2022/05/03 05:20:20;;;;;;;16.30;5.85;;;;;;;;;;4936134;29;20071;-73
2022/05/03 05:22:46;;;;;;;12.85;5.90;;;;;;;;;;4936819;29;20062;-73
2022/05/03 05:25:13;;;;;;;17.40;5.65;;;;;;;;;;4936835;29;20107;-71
2022/05/03 05:27:40;;;;;;;9.52;5.57;;;;;;;;;;4936586;29;20074;-72
2022/05/03 05:30:07;;;;;;;8.57;5.95;;;;;;;;;;4936671;29;20043;-70
2022/05/03 05:32:33;;;;;;;12.77;5.57;;;;;;;;;;4935697;29;20027;-74
2022/05/03 05:34:59;;;;;;;10.15;6.07;;;;;;;;;;4936431;29;20036;-76
2022/05/03 05:37:25;;;;;;;13.23;6.05;;;;;;;;;;4937220;29;20046;-72
2022/05/03 05:39:51;;;;;;;15.27;6.43;;;;;;;;;;4936444;29;20032;-71
2022/05/03 05:42:17;;;;;;;13.13;5.30;;;;;;;;;;4936279;29;20028;-73
2022/05/03 05:44:42;;;;;;;11.60;6.47;;;;;;;;;;4936523;29;20032;-75
2022/05/03 05:47:08;;;;;;;9.93;5.82;;;;;;;;;;4936439;29;20115;-72
2022/05/03 05:49:34;;;;;;;7.22;4.72;;;;;;;;;;4936535;29;20043;-74
2022/05/03 05:54:44;;;;;;;12.43;5.97;;;;;;;;;;4935972;29;20041;-74
2022/05/03 05:57:10;;;;;;;11.90;5.30;;;;;;;;;;4935762;29;20038;-74
2022/05/03 05:59:36;;;;;;;10.35;6.53;;;;;;;;;;4935998;29;20043;-73
2022/05/03 06:02:02;;;;;;;10.23;5.35;;;;;;;;;;4936571;29;20087;-72
2022/05/03 06:04:30;;;;;;;8.43;4.85;;;;;;;;;;4936127;29;20056;-72
2022/05/03 06:06:56;;;;;;;15.88;5.55;;;;;;;;;;4935883;29;20039;-73
2022/05/03 06:09:22;;;;;;;17.08;5.43;;;;;;;;;;4935455;29;20087;-73
2022/05/03 06:11:48;;;;;;;10.00;4.97;;;;;;;;;;4936511;29;20046;-73
2022/05/03 06:14:15;;;;;;;8.45;4.53;;;;;;;;;;4936841;29;20039;-74
2022/05/03 06:16:53;;;;;;;8.18;5.28;;;;;;;;;;4936600;29;20038;-72
2022/05/03 06:19:19;;;;;;;8.73;5.25;;;;;;;;;;4936332;29;20123;-71
2022/05/03 06:21:46;;;;;;;7.45;5.15;;;;;;;;;;4935905;29;20028;-73
2022/05/03 06:24:12;;;;;;;10.15;6.50;;;;;;;;;;4935922;29;20042;-74
2022/05/03 06:26:38;;;;;;;10.27;6.35;;;;;;;;;;4936030;29;20032;-72
2022/05/03 06:29:06;;;;;;;12.82;7.00;;;;;;;;;;4935720;29;20127;-71
2022/05/03 06:31:33;;;;;;;13.10;6.47;;;;;;;;;;4933259;29;20118;-72
2022/05/03 06:34:00;;;;;;;14.32;6.45;;;;;;;;;;4935844;29;20032;-73
2022/05/03 06:36:26;;;;;;;13.25;6.10;;;;;;;;;;4935653;29;20051;-76
2022/05/03 06:38:52;;;;;;;11.43;5.38;;;;;;;;;;4935033;29;20051;-73
2022/05/03 06:41:17;;;;;;;7.70;5.57;;;;;;;;;;4933983;29;20024;-75
2022/05/03 06:43:43;;;;;;;8.32;5.72;;;;;;;;;;4935397;29;20148;-77
2022/05/03 06:46:10;;;;;;;6.75;4.40;;;;;;;;;;4935391;29;20035;-73
2022/05/03 06:48:36;;;;;;;8.07;5.00;;;;;;;;;;4935241;29;20054;-74
2022/05/03 06:51:02;;;;;;;5.57;4.35;;;;;;;;;;4935491;29;20040;-73
2022/05/03 06:53:28;;;;;;;8.05;4.45;;;;;;;;;;4935467;29;20044;-76
2022/05/03 06:55:55;;;;;;;11.07;4.78;;;;;;;;;;4933473;29;20032;-71
2022/05/03 06:58:21;;;;;;;7.30;4.65;;;;;;;;;;4934702;29;20062;-74
2022/05/03 07:00:47;;;;;;;6.47;4.80;;;;;;;;;;4936124;29;20451;-74
2022/05/03 07:03:13;;;;;;;9.25;5.50;;;;;;;;;;4934002;29;20050;-74
2022/05/03 07:05:39;;;;;;;15.38;5.40;;;;;;;;;;4935023;29;20027;-76
2022/05/03 07:08:08;;;;;;;9.13;5.15;;;;;;;;;;4933355;29;20054;-77
2022/05/03 07:10:34;;;;;;;9.60;4.90;;;;;;;;;;4934453;29;20592;-75
2022/05/03 07:13:00;;;;;;;8.10;5.30;;;;;;;;;;4934498;29;20042;-74
2022/05/03 07:15:27;;;;;;;7.47;5.00;;;;;;;;;;4934256;29;20024;-73
2022/05/03 07:23:23;;;;;;;10.38;5.80;;;;;;;;;;4949320;29;20396;-73
2022/05/03 07:25:50;;;;;;;12.23;5.80;;;;;;;;;;4934840;29;20044;-73
2022/05/03 07:28:16;;;;;;;8.82;5.60;;;;;;;;;;4934574;29;20031;-75
2022/05/03 07:30:44;;;;;;;7.80;5.15;;;;;;;;;;4934658;29;20051;-71
2022/05/03 07:33:10;;;;;;;9.57;5.78;;;;;;;;;;4934504;29;20050;-73
2022/05/03 07:35:36;;;;;;;11.27;5.40;;;;;;;;;;4948909;29;20032;-72
2022/05/03 07:38:03;;;;;;;9.68;5.35;;;;;;;;;;4935018;29;20039;-72
2022/05/03 07:40:28;;;;;;;9.35;5.93;;;;;;;;;;4934986;29;20031;-74
2022/05/03 07:42:55;;;;;;;10.50;5.43;;;;;;;;;;4934289;29;20110;-74
2022/05/03 07:45:20;;;;;;;10.48;5.88;;;;;;;;;;4934505;29;20402;-72
2022/05/03 07:47:47;;;;;;;24.05;6.63;;;;;;;;;;4934587;29;20371;-75
2022/05/03 07:50:13;;;;;;;9.65;5.40;;;;;;;;;;4934704;29;20032;-73
2022/05/03 07:52:39;;;;;;;12.13;5.85;;;;;;;;;;4934344;29;20173;-72
2022/05/03 07:55:09;;;;;;;9.82;5.30;;;;;;;;;;4934740;29;20023;-73
2022/05/03 07:57:35;;;;;;;9.07;5.65;;;;;;;;;;4934488;29;20506;-72
2022/05/03 08:00:01;;;;;;;8.10;5.22;;;;;;;;;;4934354;29;20079;-74
2022/05/03 08:02:30;;;;;;;11.23;5.35;;;;;;;;;;4934087;29;20056;-75
2022/05/03 08:04:56;;;;;;;9.75;5.13;;;;;;;;;;4934365;29;20059;-74
2022/05/03 08:07:22;;;;;;;8.10;5.35;;;;;;;;;;4934031;29;20067;-72
2022/05/03 08:09:48;;;;;;;10.05;4.78;;;;;;;;;;4934287;29;20038;-74
2022/05/03 08:12:15;;;;;;;13.57;6.18;;;;;;;;;;4934062;29;20071;-74
2022/05/03 08:14:41;;;;;;;10.45;5.40;;;;;;;;;;4934036;29;20036;-74
2022/05/03 08:17:08;;;;;;;18.20;5.18;;;;;;;;;;4934114;29;20020;-74
2022/05/03 08:19:35;;;;;;;8.55;5.03;;;;;;;;;;4933820;29;20487;-75
2022/05/03 08:22:01;;;;;;;7.13;4.75;;;;;;;;;;4934343;29;20474;-74
2022/05/03 08:24:27;;;;;;;8.90;4.72;;;;;;;;;;4934275;29;20043;-74
2022/05/03 08:26:53;;;;;;;9.82;4.40;;;;;;;;;;4934059;29;20160;-75
2022/05/03 08:29:19;;;;;;;10.82;4.78;;;;;;;;;;4933777;29;20032;-72
2022/05/03 08:31:45;;;;;;;11.45;4.85;;;;;;;;;;4934279;29;20448;-72
2022/05/03 08:34:12;;;;;;;8.25;4.75;;;;;;;;;;4937197;29;20031;-72
2022/05/03 08:36:38;;;;;;;10.10;4.10;;;;;;;;;;4937239;29;20032;-74
2022/05/03 08:42:01;;;;;;;7.20;4.45;;;;;;;;;;4937026;29;20115;-72
2022/05/03 08:44:29;;;;;;;10.32;4.18;;;;;;;;;;4937012;29;20044;-72
2022/05/03 08:46:56;;;;;;;7.70;3.55;;;;;;;;;;4937617;29;20028;-72
2022/05/03 08:49:59;;;;;;;7.63;3.88;;;;;;;;;;4937288;29;20453;-72
2022/05/03 08:52:28;;;;;;;5.05;4.00;;;;;;;;;;4939460;29;20171;-74
2022/05/03 08:54:56;;;;;;;8.48;4.22;;;;;;;;;;4936919;29;20415;-73
2022/05/03 08:57:22;;;;;;;8.35;4.20;;;;;;;;;;4936676;29;20044;-72
2022/05/03 08:59:49;;;;;;;6.38;3.92;;;;;;;;;;4936962;29;20063;-73
2022/05/03 09:02:15;;;;;;;8.23;3.83;;;;;;;;;;4936862;29;20124;-71
2022/05/03 09:04:40;;;;;;;7.82;4.00;;;;;;;;;;4936695;29;20036;-71
2022/05/03 09:07:21;;;;;;;7.00;4.20;;;;;;;;;;4936829;29;20119;-71
2022/05/03 09:09:49;;;;;;;6.78;3.88;;;;;;;;;;4936944;29;20040;-72
2022/05/03 09:12:21;;;;;;;10.23;5.50;;;;;;;;;;4936562;29;20091;-73
2022/05/03 09:14:47;;;;;;;9.88;4.85;;;;;;;;;;4936802;29;20035;-73
2022/05/03 09:17:12;;;;;;;7.78;5.18;;;;;;;;;;4936145;29;20036;-72
2022/05/03 09:19:38;;;;;;;9.32;4.50;;;;;;;;;;4934912;29;20044;-73
2022/05/03 09:25:01;;;;;;;7.90;5.18;;;;;;;;;;4936941;29;20032;-72
2022/05/03 09:27:27;;;;;;;6.93;3.63;;;;;;;;;;4936511;29;20420;-72
2022/05/03 09:30:09;;;;;;;4.85;3.38;;;;;;;;;;4936578;29;20032;-73
2022/05/03 09:32:44;;;;;;;4.55;3.13;;;;;;;;;;4936372;29;20035;-71
2022/05/03 09:35:34;;;;;;;5.72;3.40;;;;;;;;;;4936382;29;20036;-72
2022/05/03 09:38:03;;;;;;;8.20;3.47;;;;;;;;;;4936424;29;20130;-73
2022/05/03 09:40:36;;;;;;;8.57;4.20;;;;;;;;;;4935036;29;20056;-74
2022/05/03 09:43:05;;;;;;;7.97;4.05;;;;;;;;;;4935977;29;20027;-73
2022/05/03 09:45:31;;;;;;;5.50;3.90;;;;;;;;;;4936037;29;20463;-72
2022/05/03 09:47:59;;;;;;;4.80;3.25;;;;;;;;;;4946459;29;20039;-73
2022/05/03 09:50:38;;;;;;;5.93;3.05;;;;;;;;;;4955630;29;20046;-74
2022/05/03 09:53:14;;;;;;;5.80;3.20;;;;;;;;;;4970169;28;20035;-72
2022/05/03 09:55:41;;;;;;;5.20;3.25;;;;;;;;;;4955736;28;20431;-73
2022/05/03 09:58:10;;;;;;;8.90;3.22;;;;;;;;;;4955096;29;20038;-72
2022/05/03 10:00:40;;;;;;;4.20;3.13;;;;;;;;;;4955049;28;20051;-72
2022/05/03 10:03:09;;;;;;;8.65;2.90;;;;;;;;;;4955019;29;20118;-73
2022/05/03 10:05:37;;;;;;;4.45;2.75;;;;;;;;;;4955216;29;20058;-74
2022/05/03 10:08:04;;;;;;;6.38;2.60;;;;;;;;;;4969714;28;20047;-71
2022/05/03 10:10:31;;;;;;;8.63;2.78;;;;;;;;;;4954609;29;20058;-74
2022/05/03 10:12:58;;;;;;;8.35;2.80;;;;;;;;;;4955317;29;20111;-77
2022/05/03 10:21:10;;;;;;;7.25;2.80;;;;;;;;;;4955651;29;20041;-75
2022/05/03 10:23:36;;;;;;;6.72;2.90;;;;;;;;;;4955489;28;20090;-76
2022/05/03 10:26:09;;;;;;;4.88;2.90;;;;;;;;;;4955409;28;20437;-74
2022/05/03 10:29:00;;;;;;;4.63;2.80;;;;;;;;;;4954814;28;20035;-75
2022/05/03 10:31:27;;;;;;;6.22;3.05;;;;;;;;;;4935626;29;20024;-78
2022/05/03 10:33:52;;;;;;;6.90;2.90;;;;;;;;;;4932858;29;20140;-75
2022/05/03 10:36:31;;;;;;;3.47;2.28;;;;;;;;;;4934416;29;20471;-78
2022/05/03 10:39:05;;;;;;;6.13;2.45;;;;;;;;;;4935620;29;20067;-75
2022/05/03 10:41:50;;;;;;;5.50;2.70;;;;;;;;;;4935908;29;20163;-78
2022/05/03 10:44:54;;;;;;;9.05;3.40;;;;;;;;;;4934504;29;20035;-78
2022/05/03 10:47:21;;;;;;;;;;;;;;;;;;4952659;29;20043;-77
2022/05/03 10:50:11;;;;;;;3.75;2.50;;;;;;;;;;4938335;29;19915;-74
2022/05/03 10:53:07;;;;;;;5.05;2.60;;;;;;;;;;4935367;29;20078;-75
2022/05/03 10:55:35;;;;;;;6.05;3.17;;;;;;;;;;4936405;29;20055;-75
2022/05/03 10:58:25;;;;;;;4.15;2.80;;;;;;;;;;4934938;29;20039;-76
2022/05/03 11:01:19;;;;;;;4.43;2.47;;;;;;;;;;4935129;29;20602;-76
2022/05/03 11:03:48;;;;;;;5.68;2.80;;;;;;;;;;4935060;29;20046;-74
2022/05/03 11:08:58;;;;;;;7.63;2.55;;;;;;;;;;4935143;29;20042;-75
2022/05/03 11:11:52;;;;;;;5.85;2.65;;;;;;;;;;4935210;29;20036;-77
2022/05/03 11:14:18;;;;;;;;;;;;;;;;;;4935798;29;20047;-74
2022/05/03 11:17:03;;;;;;;4.82;2.70;;;;;;;;;;4934603;29;19942;-76
2022/05/03 11:19:30;;;;;;;5.05;2.20;;;;;;;;;;4934834;29;20054;-76
2022/05/03 11:21:58;;;;;;;7.20;3.20;;;;;;;;;;4935102;29;20034;-72
2022/05/03 11:24:32;;;;;;;10.35;2.78;;;;;;;;;;4935294;29;20032;-74
2022/05/03 11:27:05;;;;;;;4.47;2.70;;;;;;;;;;4935426;29;20360;-76
2022/05/03 11:29:34;;;;;;;11.10;3.37;;;;;;;;;;4935045;29;20531;-74
2022/05/03 11:32:01;;;;;;;5.10;2.92;;;;;;;;;;4935413;29;20427;-73
2022/05/03 11:34:27;;;;;;;4.32;2.40;;;;;;;;;;4935388;29;20035;-76
2022/05/03 11:36:53;;;;;;;3.53;2.70;;;;;;;;;;4934862;29;20034;-75
2022/05/03 11:39:21;;;;;;;3.75;2.30;;;;;;;;;;4934087;29;20040;-74
2022/05/03 11:41:47;;;;;;;8.85;7.43;;;;;;;;;;4939428;28;20039;-78
2022/05/03 11:44:14;;;;;;;5.80;2.45;;;;;;;;;;4932743;29;20511;-72
2022/05/03 11:46:43;;;;;;;3.33;2.30;;;;;;;;;;4930398;29;20115;-76
2022/05/03 11:49:11;;;;;;;3.63;2.10;;;;;;;;;;4922333;29;20039;-74
2022/05/03 11:57:17;;;;;;;6.32;2.70;;;;;;;;;;4926426;29;20067;-74
2022/05/03 11:59:44;;;;;;;4.68;2.50;;;;;;;;;;4927590;29;20135;-74
2022/05/03 12:02:29;;;;;;;5.15;2.20;;;;;;;;;;4934100;29;20035;-72
2022/05/03 12:05:17;;;;;;;4.63;2.50;;;;;;;;;;4934620;29;20032;-71
2022/05/03 12:07:52;;;;;;;8.15;2.35;;;;;;;;;;4930087;29;20049;-72
2022/05/03 12:10:23;;;;;;;6.40;2.50;;;;;;;;;;4949809;29;20095;-73
2022/05/03 12:13:08;;;;;;;4.45;2.25;;;;;;;;;;4938100;29;20032;-73
2022/05/03 12:15:42;;;;;;;6.95;2.78;;;;;;;;;;4938464;29;20031;-69
2022/05/03 12:18:15;;;;;;;5.70;2.53;;;;;;;;;;4938251;29;20471;-70
2022/05/03 12:20:57;;;;;;;4.82;2.80;;;;;;;;;;4937209;29;20043;-70
2022/05/03 12:23:25;;;;;;;6.63;2.55;;;;;;;;;;4935497;29;20051;-74
2022/05/03 12:25:53;;;;;;;3.85;2.42;;;;;;;;;;4932925;29;20024;-71
2022/05/03 12:28:20;;;;;;;3.97;2.80;;;;;;;;;;4935601;29;20067;-70
2022/05/03 12:30:55;;;;;;;5.90;2.40;;;;;;;;;;4936380;29;20055;-72
2022/05/03 12:33:24;;;;;;;4.25;2.30;;;;;;;;;;4937794;29;20031;-76
2022/05/03 12:35:50;;;;;;;6.45;2.60;;;;;;;;;;4934208;29;20072;-72
2022/05/03 12:38:18;;;;;;;7.55;2.78;;;;;;;;;;4936983;29;20044;-72
2022/05/03 12:40:46;;;;;;;3.20;2.38;;;;;;;;;;4937125;29;20071;-72
2022/05/03 12:43:17;;;;;;;3.55;2.17;;;;;;;;;;4943116;29;20111;-72
2022/05/03 12:45:55;;;;;;;3.78;2.80;;;;;;;;;;4937858;29;20039;-73
2022/05/03 12:48:22;;;;;;;7.63;2.30;;;;;;;;;;4938025;29;20040;-71
2022/05/03 12:50:48;;;;;;;5.28;2.53;;;;;;;;;;4936882;29;20024;-74
2022/05/03 12:53:15;;;;;;;4.97;3.15;;;;;;;;;;4937518;29;20069;-71
2022/05/03 12:55:41;;;;;;;3.42;2.40;;;;;;;;;;4937728;29;20028;-75
2022/05/03 12:58:21;;;;;;;5.45;2.63;;;;;;;;;;4951385;29;20048;-74
2022/05/03 13:00:49;;;;;;;6.60;2.22;;;;;;;;;;4936661;29;20071;-71
2022/05/03 13:03:15;;;;;;;7.15;2.42;;;;;;;;;;4936472;29;20042;-73
2022/05/03 13:05:42;;;;;;;2.80;2.05;;;;;;;;;;4936518;29;20035;-73
2022/05/03 13:08:07;;;;;;;5.38;2.55;;;;;;;;;;4937611;29;20030;-72
2022/05/03 13:10:33;;;;;;;3.85;2.03;;;;;;;;;;4936792;29;20098;-72
2022/05/03 13:13:03;;;;;;;5.13;2.60;;;;;;;;;;4946881;29;20035;-71
2022/05/03 13:15:33;;;;;;;4.55;2.83;;;;;;;;;;4955049;29;20135;-73
2022/05/03 13:18:06;;;;;;;4.55;2.60;;;;;;;;;;4954261;28;20490;-72
2022/05/03 13:20:32;;;;;;;4.00;2.58;;;;;;;;;;4955596;28;20042;-71
2022/05/03 13:22:58;;;;;;;4.20;2.47;;;;;;;;;;4955754;29;20023;-71
2022/05/03 13:25:24;;;;;;;6.85;2.88;;;;;;;;;;4955626;29;20117;-70
2022/05/03 13:27:51;;;;;;;4.20;2.75;;;;;;;;;;4955293;29;20079;-73
2022/05/03 13:30:17;;;;;;;5.25;2.60;;;;;;;;;;4942569;28;20032;-71
2022/05/03 13:32:43;;;;;;;5.25;3.08;;;;;;;;;;4933997;29;20110;-71
2022/05/03 13:35:10;;;;;;;4.88;2.55;;;;;;;;;;4930343;29;20072;-71
2022/05/03 13:40:29;;;;;;;5.28;2.47;;;;;;;;;;4919026;29;20036;-72
2022/05/03 13:42:59;;;;;;;5.72;2.65;;;;;;;;;;4934482;29;20078;-69
2022/05/03 13:45:26;;;;;;;6.28;2.60;;;;;;;;;;4932948;29;20035;-69
2022/05/03 13:47:55;;;;;;;6.95;2.60;;;;;;;;;;4934634;29;20047;-71
2022/05/03 13:50:21;;;;;;;7.25;2.85;;;;;;;;;;4934193;29;20114;-70
2022/05/03 13:52:48;;;;;;;4.55;2.67;;;;;;;;;;4934790;29;20023;-71
2022/05/03 13:55:14;;;;;;;4.93;2.70;;;;;;;;;;4935130;29;20550;-72
2022/05/03 13:57:40;;;;;;;7.00;2.58;;;;;;;;;;4935468;29;20082;-71
2022/05/03 14:00:13;;;;;;;3.53;2.40;;;;;;;;;;4935247;29;20498;-73
2022/05/03 14:02:43;;;;;;;3.33;2.15;;;;;;;;;;4942685;29;20036;-70
2022/05/03 14:05:10;;;;;;;4.45;2.47;;;;;;;;;;4932281;29;20039;-69
2022/05/03 14:07:37;;;;;;;7.30;2.83;;;;;;;;;;4933776;29;20110;-73
2022/05/03 14:10:04;;;;;;;5.40;2.50;;;;;;;;;;4934979;29;20043;-70
2022/05/03 14:12:30;;;;;;;6.00;2.63;;;;;;;;;;4934535;29;20040;-72
2022/05/03 14:14:57;;;;;;;5.28;2.75;;;;;;;;;;4934525;29;20064;-69
2022/05/03 14:17:22;;;;;;;3.80;2.13;;;;;;;;;;4933281;29;20028;-70
2022/05/03 14:19:48;;;;;;;5.18;2.15;;;;;;;;;;4936403;29;20043;-70
2022/05/03 14:22:15;;;;;;;5.45;2.33;;;;;;;;;;4935594;29;20477;-68
2022/05/03 14:24:41;;;;;;;5.63;2.85;;;;;;;;;;4934570;29;20035;-70
2022/05/03 14:27:07;;;;;;;7.50;2.60;;;;;;;;;;4932156;29;20039;-69
2022/05/03 14:29:33;;;;;;;5.13;2.30;;;;;;;;;;4934247;29;20043;-76
2022/05/03 14:31:58;;;;;;;4.35;2.70;;;;;;;;;;4934653;29;20028;-67
2022/05/03 14:34:24;;;;;;;4.30;2.55;;;;;;;;;;4935432;29;20031;-67
2022/05/03 14:36:50;;;;;;;3.92;2.42;;;;;;;;;;4935462;29;20485;-69
2022/05/03 14:39:16;;;;;;;4.65;2.15;;;;;;;;;;4935500;29;20050;-68
2022/05/03 14:41:43;;;;;;;5.07;3.30;;;;;;;;;;4935523;29;20071;-66
2022/05/03 14:44:08;;;;;;;7.45;2.80;;;;;;;;;;4935650;29;20035;-70
2022/05/03 14:46:34;;;;;;;3.85;2.60;;;;;;;;;;4949650;29;20032;-71
2022/05/03 14:49:00;;;;;;;8.65;2.90;;;;;;;;;;4950555;28;20039;-67
2022/05/03 14:51:26;;;;;;;7.78;2.90;;;;;;;;;;4935817;29;20031;-67
2022/05/03 14:53:54;;;;;;;4.78;2.22;;;;;;;;;;4935353;29;20043;-71
2022/05/03 15:04:36;;;;;;;6.90;2.67;;;;;;;;;;4934437;29;20055;-73
2022/05/03 15:07:02;;;;;;;6.20;3.60;;;;;;;;;;4933632;29;20394;-73
2022/05/03 15:09:28;;;;;;;4.03;2.40;;;;;;;;;;4933978;29;20034;-73
2022/05/03 15:11:57;;;;;;;6.10;2.50;;;;;;;;;;4950140;29;20030;-69
2022/05/03 15:14:23;;;;;;;6.07;2.50;;;;;;;;;;4933643;29;20052;-68
2022/05/03 15:16:48;;;;;;;6.60;2.50;;;;;;;;;;4934446;29;20020;-66
2022/05/03 15:19:14;;;;;;;6.75;3.10;;;;;;;;;;4934698;29;20526;-77
2022/05/03 15:21:40;;;;;;;7.72;2.50;;;;;;;;;;4934654;29;20036;-69
2022/05/03 15:26:50;;;;;;;11.93;3.20;;;;;;;;;;4934250;29;20062;-73
2022/05/03 15:29:16;;;;;;;9.13;2.65;;;;;;;;;;4934115;29;20071;-74
2022/05/03 15:31:43;;;;;;;5.40;2.63;;;;;;;;;;4934127;29;20039;-71
2022/05/03 15:34:10;;;;;;;5.18;2.17;;;;;;;;;;4934715;29;20103;-68
2022/05/03 15:36:37;;;;;;;8.00;2.88;;;;;;;;;;4933219;29;20446;-73
2022/05/03 15:39:04;;;;;;;7.00;2.97;;;;;;;;;;4934089;29;20031;-71
2022/05/03 15:41:31;;;;;;;6.32;2.42;;;;;;;;;;4934099;29;20486;-70
2022/05/03 15:44:00;;;;;;;5.82;2.63;;;;;;;;;;4938829;29;20027;-73
2022/05/03 15:46:27;;;;;;;5.13;2.33;;;;;;;;;;4939309;29;20478;-71
2022/05/03 15:48:53;;;;;;;6.93;2.30;;;;;;;;;;4939394;29;20035;-71
2022/05/03 15:51:20;;;;;;;5.00;2.38;;;;;;;;;;4939240;29;20043;-73